Time;durP1;ratioP1;P1;durP2;ratioP2;P2;SDS_P1;SDS_P2;PMS_P1;PMS_P2;Temp;Humidity;BMP_temperature;BMP_pressure;BME280_temperature;BME280_humidity;BME280_pressure;Samples;Min_cycle;Max_cycle;Signal;HPM_P1;HPM_P2
2022/10/06 00:02:22;;;;;;;;;0.33;0.00;;;;;14.81;62.46;101986.44;5020443;28;9570;-64
2022/10/06 00:04:48;;;;;;;;;0.50;0.00;;;;;14.83;62.18;101997.94;5031728;28;8982;-66
2022/10/06 00:07:15;;;;;;;;;0.00;0.00;;;;;14.84;63.00;102002.31;5030208;28;8834;-65
2022/10/06 00:09:41;;;;;;;;;0.75;0.75;;;;;14.79;62.58;102012.06;5029707;28;8830;-67
2022/10/06 00:12:08;;;;;;;;;0.00;0.00;;;;;14.72;61.83;102006.56;5038695;28;8829;-67
2022/10/06 00:14:35;;;;;;;;;0.00;0.00;;;;;14.67;61.47;102014.44;5030012;28;8925;-62
2022/10/06 00:17:03;;;;;;;;;5.00;0.00;;;;;14.66;61.45;102034.44;5030478;28;9006;-66
2022/10/06 00:19:30;;;;;;;;;0.33;0.33;;;;;14.70;61.42;102041.16;5031274;28;8933;-67
2022/10/06 00:21:56;;;;;;;;;0.00;0.00;;;;;14.68;60.50;102040.50;5026989;28;8984;-69
2022/10/06 00:24:22;;;;;;;;;0.33;0.33;;;;;14.65;60.34;102040.88;5026419;28;8994;-64
2022/10/06 00:26:49;;;;;;;;;0.00;0.00;;;;;14.65;60.59;102057.16;5027595;28;9809;-66
2022/10/06 00:29:15;;;;;;;;;0.75;0.00;;;;;14.68;60.43;102058.66;5025719;28;8853;-66
2022/10/06 00:31:42;;;;;;;;;0.00;0.00;;;;;14.65;60.34;102056.31;5040820;28;8818;-67
2022/10/06 00:34:09;;;;;;;;;0.00;0.00;;;;;14.58;59.88;102072.50;5027450;28;8997;-64
2022/10/06 00:36:36;;;;;;;;;1.33;0.00;;;;;14.61;59.60;102065.84;5026440;28;8933;-63
2022/10/06 00:39:02;;;;;;;;;0.33;0.00;;;;;14.61;59.60;102082.97;5034043;28;8975;-63
2022/10/06 00:41:29;;;;;;;;;0.00;0.00;;;;;14.60;59.23;102081.28;5027991;28;9084;-66
2022/10/06 00:43:57;;;;;;;;;0.00;0.00;;;;;14.53;59.38;102081.19;5026862;28;9022;-64
2022/10/06 00:46:31;;;;;;;;;0.00;0.00;;;;;14.57;59.34;102089.78;5017664;28;8921;-64
2022/10/06 00:49:14;;;;;;;;;0.00;0.00;;;;;14.55;59.59;102083.72;5034335;28;8850;-66
2022/10/06 00:51:47;;;;;;;;;0.00;0.00;;;;;14.51;59.28;102106.81;5026638;28;9136;-64
2022/10/06 00:54:15;;;;;;;;;0.00;0.00;;;;;14.50;59.53;102095.16;5021834;28;9005;-65
2022/10/06 00:56:43;;;;;;;;;1.00;0.00;;;;;14.49;59.46;102106.16;5029597;28;9228;-66
2022/10/06 00:59:15;;;;;;;;;0.00;0.00;;;;;14.48;59.57;102115.28;5022244;28;8998;-64
2022/10/06 01:01:50;;;;;;;;;0.00;0.00;;;;;14.55;60.01;102121.66;5014156;28;8960;-64
2022/10/06 01:04:17;;;;;;;;;0.00;0.00;;;;;14.57;59.65;102125.84;5022807;28;8893;-65
2022/10/06 01:06:48;;;;;;;;;0.00;0.00;;;;;14.58;59.65;102123.97;5028230;28;8917;-65
2022/10/06 01:09:18;;;;;;;;;0.00;0.00;;;;;14.49;59.30;102122.41;5028365;28;8975;-65
2022/10/06 01:11:48;;;;;;;;;1.00;0.00;;;;;14.51;59.67;102134.75;5026562;28;9423;-66
2022/10/06 01:14:17;;;;;;;;;0.67;0.33;;;;;14.52;59.49;102132.88;5023741;28;9825;-66
2022/10/06 01:16:46;;;;;;;;;1.00;0.00;;;;;14.49;59.63;102139.50;5025996;28;9024;-65
2022/10/06 01:19:27;;;;;;;;;0.00;0.00;;;;;14.47;59.72;102140.72;5022471;28;8991;-65
2022/10/06 01:21:56;;;;;;;;;0.00;0.00;;;;;14.43;59.42;102142.94;5034174;28;8947;-65
2022/10/06 01:24:22;;;;;;;;;1.00;0.67;;;;;14.39;58.91;102152.47;5028343;28;8921;-64
2022/10/06 01:26:51;;;;;;;;;0.00;0.00;;;;;14.35;59.03;102153.88;5029435;28;9064;-65
2022/10/06 01:29:17;;;;;;;;;0.00;0.00;;;;;14.34;58.85;102163.88;5040463;28;9089;-65
2022/10/06 01:31:44;;;;;;;;;0.00;0.00;;;;;14.36;59.07;102163.69;5017890;28;9077;-64
2022/10/06 01:34:11;;;;;;;;;0.00;0.00;;;;;14.39;59.16;102167.91;5025449;28;8991;-66
2022/10/06 01:36:40;;;;;;;;;0.00;0.00;;;;;14.36;58.80;102160.97;5027427;28;8986;-66
2022/10/06 01:39:07;;;;;;;;;0.00;0.00;;;;;14.37;59.40;102183.47;5042192;28;8829;-66
2022/10/06 01:41:33;;;;;;;;;0.00;0.00;;;;;14.37;59.08;102180.78;5022138;28;8924;-65
2022/10/06 01:44:01;;;;;;;;;0.00;0.00;;;;;14.40;59.16;102185.81;5037804;28;8949;-65
2022/10/06 01:46:28;;;;;;;;;0.00;0.00;;;;;14.41;59.27;102185.63;5027389;28;8912;-64
2022/10/06 01:48:55;;;;;;;;;2.00;0.00;;;;;14.37;58.99;102187.03;5026878;28;9783;-65
2022/10/06 01:51:22;;;;;;;;;2.67;1.00;;;;;14.33;58.94;102189.25;5017920;28;8901;-66
2022/10/06 01:53:49;;;;;;;;;0.67;0.00;;;;;14.31;58.81;102185.91;5027791;28;9028;-65
2022/10/06 01:56:15;;;;;;;;;0.67;0.00;;;;;14.31;58.56;102193.19;5026568;28;9779;-66
2022/10/06 01:58:42;;;;;;;;;0.00;0.00;;;;;14.31;58.82;102194.03;5024933;28;8966;-66
2022/10/06 02:01:09;;;;;;;;;0.00;0.00;;;;;14.33;58.89;102191.97;5022804;28;9006;-65
2022/10/06 02:03:37;;;;;;;;;0.00;0.00;;;;;14.28;59.00;102193.56;5020509;28;8957;-65
2022/10/06 02:06:05;;;;;;;;;1.00;0.00;;;;;14.29;59.11;102195.25;5025518;28;8825;-65
2022/10/06 02:08:32;;;;;;;;;0.67;0.00;;;;;14.18;58.87;102195.69;5028499;28;8998;-64
2022/10/06 02:11:08;;;;;;;;;0.00;0.00;;;;;14.23;58.92;102210.38;5027914;28;9090;-65
2022/10/06 02:13:39;;;;;;;;;0.00;0.00;;;;;14.28;59.21;102216.06;5032237;28;9074;-66
2022/10/06 02:16:07;;;;;;;;;0.00;0.00;;;;;14.31;59.27;102223.84;5031284;28;8937;-65
2022/10/06 02:18:35;;;;;;;;;2.00;0.00;;;;;14.32;59.41;102224.66;5045148;28;8987;-66
2022/10/06 02:21:02;;;;;;;;;1.00;0.00;;;;;14.30;59.34;102222.16;5026008;28;8921;-66
2022/10/06 02:23:29;;;;;;;;;3.33;0.00;;;;;14.29;59.28;102233.16;5023334;28;9136;-66
2022/10/06 02:26:00;;;;;;;;;0.00;0.00;;;;;14.25;59.89;102235.41;5031598;28;8974;-65
2022/10/06 02:28:28;;;;;;;;;0.00;0.00;;;;;14.21;59.54;102235.94;5023856;28;8907;-65
2022/10/06 02:31:07;;;;;;;;;0.00;0.00;;;;;14.08;59.83;102234.72;5022398;28;9257;-64
2022/10/06 02:33:36;;;;;;;;;0.00;0.00;;;;;14.10;59.64;102231.84;5029802;28;9145;-66
2022/10/06 02:36:05;;;;;;;;;1.00;0.00;;;;;14.13;59.63;102253.13;5026776;28;9090;-63
2022/10/06 02:38:32;;;;;;;;;0.00;0.00;;;;;14.09;59.79;102257.22;5023351;28;9100;-66
2022/10/06 02:41:01;;;;;;;;;0.00;0.00;;;;;14.07;59.94;102268.25;5027466;28;9172;-64
2022/10/06 02:43:30;;;;;;;;;0.00;0.00;;;;;14.11;59.81;102252.47;5031334;28;9088;-65
2022/10/06 02:46:01;;;;;;;;;0.00;0.00;;;;;14.12;59.90;102259.56;5028028;28;9885;-67
2022/10/06 02:48:28;;;;;;;;;0.00;0.00;;;;;14.11;59.57;102268.72;5045450;28;9051;-65
2022/10/06 02:51:01;;;;;;;;;0.00;0.00;;;;;14.07;59.67;102272.81;5027308;28;9098;-65
2022/10/06 02:53:28;;;;;;;;;1.67;0.00;;;;;14.06;60.06;102276.56;5044618;28;9791;-66
2022/10/06 02:56:00;;;;;;;;;0.00;0.00;;;;;14.11;59.92;102276.84;5022358;28;9041;-66
2022/10/06 02:58:28;;;;;;;;;0.00;0.00;;;;;14.09;59.97;102284.28;5021920;28;9028;-64
2022/10/06 03:01:01;;;;;;;;;0.00;0.00;;;;;14.08;60.02;102297.00;5029069;28;9159;-67
2022/10/06 03:03:28;;;;;;;;;0.00;0.00;;;;;14.05;59.93;102296.50;5027537;28;9267;-65
2022/10/06 03:06:03;;;;;;;;;0.67;0.00;;;;;14.04;60.13;102297.53;5018998;28;9313;-64
2022/10/06 03:08:32;;;;;;;;;0.00;0.00;;;;;14.05;60.13;102307.34;5025264;28;9177;-65
2022/10/06 03:11:01;;;;;;;;;0.00;0.00;;;;;14.05;60.35;102313.59;5030276;28;9278;-64
2022/10/06 03:13:29;;;;;;;;;0.00;0.00;;;;;14.06;60.67;102314.47;5029885;28;9064;-66
2022/10/06 03:15:56;;;;;;;;;0.33;0.00;;;;;14.00;60.76;102318.72;5030209;28;9240;-64
2022/10/06 03:18:23;;;;;;;;;1.00;0.00;;;;;14.00;60.93;102317.88;5026162;28;9059;-65
2022/10/06 03:20:50;;;;;;;;;1.00;0.00;;;;;13.99;60.72;102324.31;5024513;28;9056;-66
2022/10/06 03:23:16;;;;;;;;;1.00;0.00;;;;;14.04;60.81;102327.31;5030117;28;9252;-65
2022/10/06 03:25:43;;;;;;;;;0.00;0.00;;;;;14.07;60.84;102337.81;5029934;28;9774;-67
2022/10/06 03:28:10;;;;;;;;;1.00;1.00;;;;;14.05;60.96;102337.13;5022688;28;9223;-66
2022/10/06 03:30:36;;;;;;;;;0.33;0.00;;;;;14.00;60.77;102334.13;5027695;28;9154;-66
2022/10/06 03:33:04;;;;;;;;;0.00;0.00;;;;;13.96;60.64;102339.06;5028743;28;9256;-67
2022/10/06 03:35:30;;;;;;;;;1.00;0.00;;;;;13.95;61.10;102352.78;5025209;28;9158;-66
2022/10/06 03:37:57;;;;;;;;;0.00;0.00;;;;;13.91;61.34;102352.28;5023668;28;9154;-65
2022/10/06 03:40:24;;;;;;;;;0.00;0.00;;;;;13.87;61.14;102355.53;5029636;28;9168;-63
2022/10/06 03:42:51;;;;;;;;;0.00;0.00;;;;;13.88;61.05;102363.47;4966846;23;9141;-64
2022/10/06 03:45:17;;;;;;;;;0.00;0.00;;;;;13.87;61.30;102363.66;4938201;28;9031;-64
2022/10/06 03:47:44;;;;;;;;;0.00;0.00;;;;;13.86;61.27;102362.81;4954975;28;9050;-64
2022/10/06 03:50:10;;;;;;;;;0.00;0.00;;;;;13.87;61.30;102364.50;4934120;28;9233;-64
2022/10/06 03:52:37;;;;;;;;;0.00;0.00;;;;;13.87;61.33;102377.19;4933593;29;9015;-66
2022/10/06 03:55:04;;;;;;;;;0.00;0.00;;;;;13.87;61.46;102379.91;4940098;28;9269;-66
2022/10/06 03:57:32;;;;;;;;;0.00;0.00;;;;;13.79;61.04;102384.34;4907878;28;9164;-66
2022/10/06 03:59:59;;;;;;;;;0.00;0.00;;;;;13.77;61.04;102388.22;4912087;28;9159;-65
2022/10/06 04:02:26;;;;;;;;;1.67;0.00;;;;;13.72;61.13;102393.34;4937780;28;9171;-65
2022/10/06 04:04:54;;;;;;;;;0.33;0.33;;;;;13.75;61.56;102398.41;4925695;28;9162;-65
2022/10/06 04:07:22;;;;;;;;;2.00;1.00;;;;;13.78;61.49;102400.75;4910523;29;9180;-65
2022/10/06 04:09:49;;;;;;;;;0.00;0.00;;;;;13.83;61.63;102409.19;4909091;29;9245;-65
2022/10/06 04:12:16;;;;;;;;;0.00;0.00;;;;;13.83;61.37;102404.63;4929922;29;9214;-65
2022/10/06 04:14:43;;;;;;;;;0.67;0.67;;;;;13.78;61.28;102403.47;4896725;28;9176;-65
2022/10/06 04:17:09;;;;;;;;;0.00;0.00;;;;;13.77;61.53;102408.03;4911507;28;9303;-65
2022/10/06 04:19:38;;;;;;;;;0.00;0.00;;;;;13.78;61.51;102415.13;4911701;28;9331;-65
2022/10/06 04:22:05;;;;;;;;;1.00;0.67;;;;;13.79;61.29;102414.09;4924686;28;9178;-65
2022/10/06 04:24:33;;;;;;;;;0.00;0.00;;;;;13.76;61.07;102419.88;4904960;29;9242;-66
2022/10/06 04:29:55;;;;;;;;;0.00;0.00;;;;;13.70;61.60;102431.41;4904515;28;9298;-65
2022/10/06 04:32:21;;;;;;;;;0.33;0.00;;;;;13.70;61.53;102436.81;4925945;28;8984;-65
2022/10/06 04:34:48;;;;;;;;;2.00;0.67;;;;;13.70;61.73;102436.81;4908970;29;9086;-65
2022/10/06 04:37:15;;;;;;;;;0.00;0.00;;;;;13.69;61.44;102435.13;4908104;29;9223;-66
2022/10/06 04:39:42;;;;;;;;;0.00;0.00;;;;;13.67;61.47;102439.03;4913842;28;9071;-65
2022/10/06 04:42:09;;;;;;;;;4.67;0.00;;;;;13.70;61.69;102444.09;4910314;28;9144;-65
2022/10/06 04:44:35;;;;;;;;;0.00;0.00;;;;;13.63;61.24;102443.13;4907036;28;9351;-65
2022/10/06 04:47:03;;;;;;;;;1.00;1.00;;;;;13.58;61.38;102460.72;4905559;28;9305;-65
2022/10/06 04:49:30;;;;;;;;;1.00;1.00;;;;;13.60;61.47;102460.53;4905247;28;9254;-65
2022/10/06 04:51:57;;;;;;;;;2.00;1.00;;;;;13.60;61.66;102471.34;4912014;28;9224;-67
2022/10/06 04:54:25;;;;;;;;;0.33;0.33;;;;;13.63;61.56;102465.59;4922037;28;9264;-63
2022/10/06 04:56:58;;;;;;;;;2.00;0.00;;;;;13.60;61.61;102468.66;4922567;29;9171;-64
2022/10/06 05:00:21;;;;;;;;;0.00;0.00;;;;;13.60;61.72;102468.66;4931316;28;9777;-64
2022/10/06 05:02:15;;;;;;;;;0.00;0.00;;;;;13.61;61.72;102481.16;4922675;28;9148;-64
2022/10/06 05:04:42;;;;;;;;;0.00;0.00;;;;;13.60;61.67;102480.31;4901211;29;9314;-64
2022/10/06 05:07:10;;;;;;;;;0.00;0.00;;;;;13.59;61.91;102483.19;4918887;28;9218;-65
2022/10/06 05:09:36;;;;;;;;;0.00;0.00;;;;;13.55;61.95;102479.16;4912177;29;9333;-64
2022/10/06 05:12:03;;;;;;;;;1.00;0.00;;;;;13.54;61.90;102485.59;4917677;28;9351;-64
2022/10/06 05:14:32;;;;;;;;;0.00;0.00;;;;;13.55;61.98;102488.13;4927283;29;9398;-65
2022/10/06 05:16:58;;;;;;;;;1.33;0.00;;;;;13.51;62.04;102492.19;4908355;28;9317;-65
2022/10/06 05:19:25;;;;;;;;;0.00;0.00;;;;;13.52;62.06;102509.25;4926949;28;9296;-65
2022/10/06 05:21:51;;;;;;;;;1.33;0.00;;;;;13.52;62.33;102511.97;4925708;29;9325;-64
2022/10/06 05:24:22;;;;;;;;;0.00;0.00;;;;;13.53;62.60;102516.34;4912921;28;9253;-65
2022/10/06 05:26:49;;;;;;;;;3.33;0.00;;;;;13.53;62.55;102513.66;4915965;28;9229;-64
2022/10/06 05:29:15;;;;;;;;;0.00;0.00;;;;;13.53;62.39;102510.94;4920435;28;9341;-64
2022/10/06 05:31:43;;;;;;;;;0.33;0.00;;;;;13.52;62.44;102515.50;4913491;29;9293;-65
2022/10/06 05:34:12;;;;;;;;;1.00;0.00;;;;;13.52;62.49;102520.91;4911767;28;9308;-65
2022/10/06 05:36:39;;;;;;;;;0.00;0.00;;;;;13.52;62.64;102522.78;4912818;29;9331;-65
2022/10/06 05:39:06;;;;;;;;;0.00;0.00;;;;;13.51;62.53;102521.94;4912710;29;9292;-65
2022/10/06 05:41:41;;;;;;;;;0.00;0.00;;;;;13.49;62.67;102534.81;4910777;28;9200;-65
2022/10/06 05:44:09;;;;;;;;;0.00;0.00;;;;;13.48;62.96;102533.09;4935960;28;9317;-65
2022/10/06 05:46:38;;;;;;;;;0.00;0.00;;;;;13.47;63.30;102542.25;4898105;28;9324;-66
2022/10/06 05:49:08;;;;;;;;;12.75;10.25;;;;;13.43;63.45;102543.59;4947921;29;9230;-64
2022/10/06 05:51:36;;;;;;;;;24.75;24.75;;;;;13.41;63.31;102539.38;4931707;28;9842;-66
2022/10/06 05:54:07;;;;;;;;;16.00;13.50;;;;;13.39;63.54;102546.81;4920754;29;10250;-65
2022/10/06 05:56:35;;;;;;;;;13.00;10.50;;;;;13.33;63.81;102546.50;4921697;28;10032;-64
2022/10/06 05:59:04;;;;;;;;;6.50;6.50;;;;;13.29;64.07;102555.97;4984281;28;9753;-65
2022/10/06 06:01:34;;;;;;;;;4.50;4.50;;;;;13.26;64.24;102556.31;4967679;28;9756;-64
2022/10/06 06:04:06;;;;;;;;;5.00;2.25;;;;;13.21;64.29;102558.66;4914977;29;9741;-64
2022/10/06 06:06:39;;;;;;;;;0.00;0.00;;;;;13.20;64.38;102573.16;4914455;29;9627;-63
2022/10/06 06:09:12;;;;;;;;;1.25;1.00;;;;;13.15;64.49;102572.00;4896449;29;9374;-64
2022/10/06 06:11:48;;;;;;;;;4.00;3.00;;;;;13.11;64.60;102577.72;4913958;28;9530;-64
2022/10/06 06:15:59;;;;;;;;;2.00;2.00;;;;;13.10;64.79;102586.84;4897197;29;9767;-64
2022/10/06 06:17:13;;;;;;;;;3.00;3.00;;;;;13.06;65.11;102585.50;4936676;28;9549;-65
2022/10/06 06:19:39;;;;;;;;;1.00;1.00;;;;;13.02;64.89;102589.56;4914169;29;9712;-64
2022/10/06 06:22:07;;;;;;;;;0.00;0.00;;;;;13.01;64.92;102592.44;4913923;29;9497;-64
2022/10/06 06:24:37;;;;;;;;;1.00;1.00;;;;;13.02;64.78;102604.94;4912908;28;9484;-64
2022/10/06 06:27:03;;;;;;;;;0.33;0.33;;;;;13.05;64.54;102604.59;4901157;28;9647;-65
2022/10/06 06:29:30;;;;;;;;;1.75;1.75;;;;;13.09;64.65;102601.41;4915738;29;10173;-65
2022/10/06 06:31:56;;;;;;;;;2.00;2.00;;;;;13.18;64.82;102604.94;4926358;28;9551;-64
2022/10/06 06:34:24;;;;;;;;;5.25;1.75;;;;;13.25;64.68;102603.31;4932316;29;9584;-65
2022/10/06 06:36:53;;;;;;;;;2.00;1.00;;;;;13.29;64.30;102612.75;4914018;29;9399;-65
2022/10/06 06:39:20;;;;;;;;;3.00;3.00;;;;;13.31;64.22;102613.44;4914609;29;10045;-65
2022/10/06 06:41:48;;;;;;;;;1.00;1.00;;;;;13.30;64.06;102608.19;4915347;28;9421;-64
2022/10/06 06:44:33;;;;;;;;;1.00;1.00;;;;;13.24;63.77;102611.56;4931689;29;9407;-64
2022/10/06 06:47:04;;;;;;;;;1.00;1.00;;;;;13.19;64.06;102620.16;4931487;28;9316;-64
2022/10/06 06:49:30;;;;;;;;;0.00;0.00;;;;;13.20;64.42;102624.53;4932918;29;10052;-65
2022/10/06 06:52:03;;;;;;;;;0.00;0.00;;;;;13.18;64.52;102633.84;4929732;28;9242;-65
2022/10/06 06:54:32;;;;;;;;;2.00;0.67;;;;;13.12;64.45;102635.34;4899499;29;9591;-65
2022/10/06 06:57:08;;;;;;;;;0.50;0.50;;;;;13.13;64.57;102637.06;4916066;29;9298;-65
2022/10/06 06:59:37;;;;;;;;;3.25;1.00;;;;;13.15;64.64;102645.84;4915384;29;9441;-65
2022/10/06 07:02:05;;;;;;;;;0.75;0.75;;;;;13.13;64.80;102637.06;4913252;29;9465;-65
2022/10/06 07:04:36;;;;;;;;;2.00;0.00;;;;;13.18;64.77;102644.66;4912155;28;9535;-65
2022/10/06 07:07:04;;;;;;;;;0.00;0.00;;;;;13.18;64.72;102650.06;4917321;29;9520;-65
2022/10/06 07:09:34;;;;;;;;;1.00;0.00;;;;;13.16;64.54;102652.94;4914368;28;9364;-65
2022/10/06 07:12:05;;;;;;;;;0.00;0.00;;;;;13.17;64.65;102665.47;4915091;28;9406;-65
2022/10/06 07:14:32;;;;;;;;;2.00;1.00;;;;;13.19;64.87;102666.13;4912139;29;9390;-64
2022/10/06 07:25:25;;;;;;;;;1.00;1.00;;;;;13.21;65.26;102690.31;4930633;29;9339;-64
2022/10/06 07:28:02;;;;;;;;;0.00;0.00;;;;;13.25;65.31;102691.72;4919706;29;9524;-65
2022/10/06 07:30:37;;;;;;;;;2.00;1.00;;;;;13.27;65.39;102693.22;4911962;29;9305;-65
2022/10/06 07:33:10;;;;;;;;;1.00;1.00;;;;;13.34;65.59;102701.50;4908923;29;9386;-64
2022/10/06 07:35:38;;;;;;;;;2.00;1.00;;;;;13.29;65.42;102704.72;4914820;29;9304;-65
2022/10/06 07:38:06;;;;;;;;;0.75;0.75;;;;;13.32;65.75;102701.66;4914303;29;9383;-65
2022/10/06 07:40:37;;;;;;;;;1.00;1.00;;;;;13.39;65.64;102712.66;4914541;29;9491;-65
2022/10/06 07:43:21;;;;;;;;;0.00;0.00;;;;;13.46;65.65;102705.59;4910260;29;9379;-65
2022/10/06 07:45:49;;;;;;;;;0.33;0.33;;;;;13.52;65.49;102712.16;4905856;29;10238;-64
2022/10/06 07:48:22;;;;;;;;;0.33;0.33;;;;;13.56;65.50;102714.38;4913716;29;9146;-65
2022/10/06 07:50:52;;;;;;;;;0.00;0.00;;;;;13.59;65.54;102719.44;4914719;29;9285;-65
2022/10/06 07:53:26;;;;;;;;;0.00;0.00;;;;;13.65;65.24;102725.19;4914473;29;9212;-65
2022/10/06 07:56:07;;;;;;;;;0.33;0.33;;;;;13.69;65.23;102721.97;4914619;29;9308;-64
2022/10/06 07:58:40;;;;;;;;;0.00;0.00;;;;;13.72;65.34;102726.22;4913725;29;9225;-65
2022/10/06 08:01:10;;;;;;;;;2.00;1.67;;;;;13.69;65.44;102727.41;4931003;29;9178;-65
2022/10/06 08:03:37;;;;;;;;;1.67;1.00;;;;;13.68;65.21;102725.72;4931146;28;9414;-65
2022/10/06 08:06:04;;;;;;;;;1.67;0.33;;;;;13.64;65.60;102729.78;4930548;29;9296;-65
2022/10/06 08:08:36;;;;;;;;;0.00;0.00;;;;;13.70;65.42;102729.09;4930913;28;9153;-65
2022/10/06 08:11:04;;;;;;;;;2.33;1.33;;;;;13.76;65.14;102736.53;4914311;29;9953;-65
2022/10/06 08:13:31;;;;;;;;;0.00;0.00;;;;;13.83;64.76;102742.13;4914318;29;9233;-65
2022/10/06 08:16:05;;;;;;;;;0.00;0.00;;;;;13.92;64.57;102746.53;4930877;29;9200;-65
2022/10/06 08:18:32;;;;;;;;;0.00;0.00;;;;;13.99;64.37;102750.25;4930807;29;9144;-64
2022/10/06 08:21:15;;;;;;;;;1.00;0.00;;;;;14.06;64.31;102745.00;4931138;29;9164;-66
2022/10/06 08:23:42;;;;;;;;;0.00;0.00;;;;;14.12;64.34;102760.56;4930881;29;9044;-65
2022/10/06 08:26:10;;;;;;;;;0.00;0.00;;;;;14.19;64.16;102758.88;4930926;29;9090;-64
2022/10/06 08:28:38;;;;;;;;;2.00;0.00;;;;;14.21;64.22;102767.66;4930623;29;9145;-64
2022/10/06 08:31:06;;;;;;;;;1.00;1.00;;;;;14.22;63.70;102774.78;4930283;29;9146;-64
2022/10/06 08:33:37;;;;;;;;;1.00;0.00;;;;;14.17;62.57;102777.13;4930815;29;9053;-64
2022/10/06 08:36:07;;;;;;;;;1.00;0.00;;;;;14.14;61.96;102776.63;4930583;29;9814;-64
2022/10/06 08:38:35;;;;;;;;;0.67;0.33;;;;;14.18;61.99;102786.09;4913629;29;9226;-64
2022/10/06 08:41:24;;;;;;;;;0.00;0.00;;;;;14.10;61.57;102784.28;4930595;29;9222;-64
2022/10/06 08:43:56;;;;;;;;;0.00;0.00;;;;;13.99;61.40;102798.16;4935929;29;9115;-64
2022/10/06 08:46:29;;;;;;;;;0.33;0.33;;;;;13.97;61.59;102790.19;4931168;29;9058;-64
2022/10/06 08:48:57;;;;;;;;;0.00;0.00;;;;;14.10;61.42;102795.09;4930911;29;9912;-64
2022/10/06 08:51:49;;;;;;;;;0.00;0.00;;;;;14.30;61.43;102798.28;4930709;29;9164;-64
2022/10/06 08:54:34;;;;;;;;;0.00;0.00;;;;;14.43;61.29;102800.50;4928299;29;9059;-64
2022/10/06 08:57:15;;;;;;;;;0.67;0.33;;;;;14.52;60.71;102808.47;4913270;29;9091;-64
2022/10/06 08:59:46;;;;;;;;;0.50;0.50;;;;;14.59;59.88;102800.50;4930640;29;9831;-64
2022/10/06 09:02:28;;;;;;;;;0.00;0.00;;;;;14.46;59.71;102805.53;4930555;29;8835;-64
2022/10/06 09:05:00;;;;;;;;;0.00;0.00;;;;;14.39;59.50;102812.69;4930758;29;9070;-64
2022/10/06 09:07:58;;;;;;;;;0.00;0.00;;;;;14.31;59.46;102819.81;4929398;29;9143;-64
2022/10/06 09:10:38;;;;;;;;;2.00;1.00;;;;;14.25;59.39;102825.88;4930469;29;9027;-64
2022/10/06 09:13:11;;;;;;;;;0.00;0.00;;;;;14.33;58.97;102822.31;4913232;29;9063;-64
2022/10/06 09:15:45;;;;;;;;;0.33;0.00;;;;;14.38;58.71;102829.94;4930429;29;9089;-63
2022/10/06 09:18:21;;;;;;;;;1.33;0.00;;;;;14.41;58.36;102835.03;4930129;29;8997;-64
2022/10/06 09:21:05;;;;;;;;;0.00;0.00;;;;;14.37;57.91;102826.38;4930403;29;9174;-64
2022/10/06 09:23:48;;;;;;;;;0.00;0.00;;;;;14.40;57.74;102827.94;4929146;29;9081;-64
2022/10/06 09:26:17;;;;;;;;;0.33;0.33;;;;;14.43;57.15;102831.13;4913470;29;9004;-64
2022/10/06 09:28:46;;;;;;;;;0.00;0.00;;;;;14.50;56.70;102834.03;4929773;28;9182;-64
2022/10/06 09:31:36;;;;;;;;;0.00;0.00;;;;;14.58;56.46;102843.00;4913352;28;9809;-64
2022/10/06 09:34:33;;;;;;;;;0.00;0.00;;;;;14.57;55.95;102840.47;4912868;29;9071;-64
2022/10/06 09:37:03;;;;;;;;;0.00;0.00;;;;;14.64;55.83;102846.03;4920278;29;9089;-64
2022/10/06 09:39:35;;;;;;;;;1.00;0.00;;;;;14.63;55.78;102842.50;4897255;29;9784;-63
2022/10/06 09:42:11;;;;;;;;;1.33;0.00;;;;;14.62;55.30;102838.06;4984874;23;9037;-64
2022/10/06 09:44:54;;;;;;;;;0.00;0.00;;;;;14.67;55.91;102840.28;5049647;28;8901;-65
2022/10/06 09:47:35;;;;;;;;;0.00;0.00;;;;;14.77;56.10;102841.78;5049345;28;8848;-67
2022/10/06 09:50:11;;;;;;;;;0.50;0.00;;;;;14.76;55.64;102831.13;5049835;28;9039;-65
2022/10/06 09:52:39;;;;;;;;;0.33;0.00;;;;;14.75;55.40;102842.97;5042279;28;8830;-63
2022/10/06 09:55:14;;;;;;;;;0.00;0.00;;;;;14.84;55.81;102842.78;5030327;28;8922;-66
2022/10/06 09:57:52;;;;;;;;;0.00;0.00;;;;;14.79;55.77;102839.75;5031078;28;8839;-65
2022/10/06 10:00:34;;;;;;;;;0.00;0.00;;;;;14.88;55.84;102853.28;5030341;28;8915;-65
2022/10/06 10:03:10;;;;;;;;;0.00;0.00;;;;;14.97;56.46;102846.81;5039914;28;8986;-66
2022/10/06 10:05:45;;;;;;;;;0.00;0.00;;;;;15.05;56.52;102846.78;5049611;28;8916;-64
2022/10/06 10:08:11;;;;;;;;;0.00;0.00;;;;;15.09;57.04;102853.56;5034734;28;8861;-63
2022/10/06 10:10:39;;;;;;;;;0.00;0.00;;;;;15.16;56.74;102851.84;5029677;28;8891;-62
2022/10/06 10:13:23;;;;;;;;;2.00;0.00;;;;;15.11;55.70;102851.53;5030887;28;9625;-66
2022/10/06 10:15:59;;;;;;;;;0.33;0.00;;;;;15.04;56.02;102855.94;5029872;28;9645;-68
2022/10/06 10:18:29;;;;;;;;;0.00;0.00;;;;;15.05;56.29;102854.91;5039106;28;9613;-68
2022/10/06 10:21:09;;;;;;;;;1.67;0.00;;;;;15.05;56.34;102849.50;5048091;28;8913;-64
2022/10/06 10:23:39;;;;;;;;;0.33;0.00;;;;;15.06;56.02;102856.59;5049899;28;8966;-68
2022/10/06 10:26:16;;;;;;;;;2.33;1.00;;;;;15.04;55.92;102869.50;5032186;28;8938;-67
2022/10/06 10:32:12;;;;;;;;;1.00;0.00;;;;;14.89;56.06;102863.94;5283596;23;8915;-64
2022/10/06 10:34:57;;;;;;;;;0.67;0.00;;;;;14.91;56.23;102870.06;4915050;29;9032;-66
2022/10/06 10:37:34;;;;;;;;;1.00;0.00;;;;;14.87;56.68;102870.56;4915428;29;9185;-67
2022/10/06 10:40:16;;;;;;;;;0.00;0.00;;;;;14.82;56.84;102861.06;4916493;29;8942;-64
2022/10/06 10:43:09;;;;;;;;;0.00;0.00;;;;;14.73;57.32;102870.25;4897776;29;8997;-64
2022/10/06 10:45:45;;;;;;;;;1.25;0.25;;;;;14.76;57.08;102869.91;4898061;29;8866;-66
2022/10/06 10:48:21;;;;;;;;;0.67;0.67;;;;;14.72;57.23;102867.72;4897412;29;8855;-65
2022/10/06 10:50:49;;;;;;;;;0.00;0.00;;;;;14.74;56.49;102880.06;4896979;29;8922;-66
2022/10/06 10:53:49;;;;;;;;;2.00;0.00;;;;;14.76;56.32;102888.03;4897528;29;9083;-65
2022/10/06 10:56:20;;;;;;;;;0.50;0.00;;;;;14.78;56.15;102886.00;4897500;29;9013;-65
2022/10/06 10:58:51;;;;;;;;;1.00;1.00;;;;;14.83;55.65;102884.47;4895955;29;8866;-66
2022/10/06 11:01:43;;;;;;;;;2.00;1.00;;;;;14.91;55.10;102890.88;4897060;29;9056;-66
2022/10/06 11:04:11;;;;;;;;;1.00;0.00;;;;;15.00;55.04;102895.28;4890003;29;8917;-66
2022/10/06 11:06:51;;;;;;;;;0.00;0.00;;;;;15.05;54.70;102895.59;4897270;29;9328;-67
2022/10/06 11:09:28;;;;;;;;;0.00;0.00;;;;;14.97;54.67;102892.91;4897244;29;8846;-65
2022/10/06 11:12:24;;;;;;;;;0.00;0.00;;;;;14.99;54.75;102899.88;4897314;29;8975;-66
2022/10/06 11:15:02;;;;;;;;;0.00;0.00;;;;;14.93;54.73;102894.28;4897407;29;8850;-66
2022/10/06 11:17:43;;;;;;;;;0.75;0.00;;;;;14.96;54.48;102899.38;4892716;29;9133;-66
2022/10/06 11:20:32;;;;;;;;;0.75;0.00;;;;;14.91;54.17;102904.44;4878106;29;8853;-67
2022/10/06 11:23:24;;;;;;;;;0.00;0.00;;;;;15.03;54.35;102906.63;4877112;29;8968;-65
2022/10/06 11:26:17;;;;;;;;;0.00;0.00;;;;;15.13;54.59;102908.31;4884396;29;9043;-66
2022/10/06 11:28:57;;;;;;;;;0.33;0.00;;;;;15.03;53.86;102895.78;4885130;29;8943;-67
2022/10/06 11:31:42;;;;;;;;;0.00;0.00;;;;;15.10;54.11;102901.34;4887791;29;9031;-66
2022/10/06 11:34:09;;;;;;;;;0.00;0.00;;;;;15.18;53.98;102903.19;4896992;29;9601;-66
2022/10/06 11:37:01;;;;;;;;;0.00;0.00;;;;;15.23;54.79;102917.06;4896847;29;8949;-68
2022/10/06 11:39:39;;;;;;;;;1.25;0.00;;;;;15.09;54.71;102908.66;4896470;29;9055;-66
2022/10/06 11:42:37;;;;;;;;;1.00;0.00;;;;;15.16;54.94;102913.38;4895260;29;8854;-67
2022/10/06 11:45:12;;;;;;;;;2.00;2.00;;;;;15.21;54.59;102919.97;4889512;29;9000;-67
2022/10/06 11:48:16;;;;;;;;;0.00;0.00;;;;;15.28;54.64;102918.25;4896799;29;9071;-67
2022/10/06 11:50:43;;;;;;;;;0.00;0.00;;;;;15.34;54.98;102920.25;4895484;29;8979;-67
2022/10/06 11:53:27;;;;;;;;;0.00;0.00;;;;;15.36;54.63;102916.53;4896705;29;8835;-67
2022/10/06 11:56:15;;;;;;;;;0.00;0.00;;;;;15.37;54.04;102908.22;4895430;29;8881;-66
2022/10/06 11:58:50;;;;;;;;;0.25;0.00;;;;;15.36;53.40;102911.13;4896399;29;8857;-66
2022/10/06 12:01:29;;;;;;;;;0.00;0.00;;;;;15.41;54.10;102916.84;4894955;29;8970;-67
2022/10/06 12:04:07;;;;;;;;;1.00;0.00;;;;;15.36;53.82;102914.69;4895025;29;8869;-65
2022/10/06 12:06:44;;;;;;;;;1.50;0.75;;;;;15.42;53.88;102904.97;4896438;29;9093;-66
2022/10/06 12:09:22;;;;;;;;;0.00;0.00;;;;;15.35;53.61;102893.97;4895580;29;8864;-67
2022/10/06 12:12:00;;;;;;;;;0.00;0.00;;;;;15.24;54.29;102897.94;4894879;29;9101;-67